»·PEaware :: N900TS KSAN-KTNP

N900TS :: KSAN-KTNP

FLIGHT INFORMATION

Flight Status: Arrived
Operator: Privately registered:
United States
More flights under this callsign
Pilot: Vlad D. (11271)
Aircraft: SOCATA TBM-900
(TBM9)
More flights by this aircraft type
Origin: KSAN San Diego Intl-Lindbergh
United States
Destination: KTNP Twentynine Palms
United States
More flights between these airports :: More routes between these airports
Route: +BRDR7 JLI V208 CLOWD
File this flight plan on PilotEdge
Remarks: Would like composite Z Flt Plan - Change to VFR over CLOWD.
Altitude:
(Current/Filed)
15,000ft
Speed:
(Current/Filed)
230kts
Departed: 30-Mar-19 07:22 PM
Arrived: 30-Mar-19 07:59 PM
Distance/Time
Traveled:
105nm/0:37
Distance/Time
To Go:
Arrived

Flight Plot

Page will automatically refresh every two minutes.

Flight plan parsing failed; only flown route is shown


Map Options




Map Legend


Flown Route
Filed Route
Departure Airport
Arrival Airport
Navaid (VOR, NDB)
Fix

Horizontal Profiles

Position Reports

Time Latitude Longitude Heading Altitude Ground
Speed
30-Mar-19 18:45 32.734699 -117.190704 38 18ft 0kts
30-Mar-19 18:52 32.734699 -117.190704 38 18ft 0kts
30-Mar-19 18:53 32.734699 -117.190704 38 18ft 0kts
30-Mar-19 18:54 32.734699 -117.190704 38 18ft 0kts
30-Mar-19 18:55 32.734699 -117.190704 38 18ft 0kts
30-Mar-19 18:56 32.734699 -117.190704 38 18ft 0kts
30-Mar-19 18:57 32.734699 -117.190704 38 18ft 0kts
30-Mar-19 18:58 32.734699 -117.190704 38 18ft 0kts
30-Mar-19 18:59 32.734699 -117.190704 38 18ft 0kts
30-Mar-19 19:00 32.734699 -117.190704 38 18ft 0kts
30-Mar-19 19:01 32.734699 -117.190704 38 18ft 0kts
30-Mar-19 19:02 32.734699 -117.190704 38 18ft 0kts
30-Mar-19 19:03 32.734699 -117.190704 38 18ft 0kts
30-Mar-19 19:04 32.734699 -117.190704 38 18ft 0kts
30-Mar-19 19:05 32.734699 -117.190704 38 18ft 0kts
30-Mar-19 19:06 32.734699 -117.190704 38 18ft 0kts
30-Mar-19 19:07 32.734699 -117.190704 38 18ft 0kts
30-Mar-19 19:08 32.734699 -117.190704 38 18ft 0kts
30-Mar-19 19:09 32.734699 -117.190704 38 18ft 0kts
30-Mar-19 19:10 32.734699 -117.190704 38 18ft 0kts
30-Mar-19 19:11 32.734699 -117.190704 38 18ft 0kts
30-Mar-19 19:13 32.734699 -117.190704 38 18ft 0kts
30-Mar-19 19:14 32.734786 -117.189888 105 19ft 11kts
30-Mar-19 19:15 32.733828 -117.185868 106 17ft 8kts
30-Mar-19 19:16 32.733245 -117.183565 105 17ft 9kts
30-Mar-19 19:17 32.732165 -117.179151 105 17ft 17kts
30-Mar-19 19:18 32.731035 -117.175586 137 23ft 0kts
30-Mar-19 19:19 32.731035 -117.175586 137 23ft 0kts
30-Mar-19 19:20 32.731035 -117.175586 137 23ft 0kts
30-Mar-19 19:21 32.730138 -117.175444 244 19ft 12kts
30-Mar-19 19:22 32.733054 -117.186581 288 145ft 112kts
30-Mar-19 19:23 32.744898 -117.228993 292 1975ft 140kts
30-Mar-19 19:24 32.758167 -117.274655 293 4010ft 143kts
30-Mar-19 19:25 32.751821 -117.313987 182 6175ft 154kts
30-Mar-19 19:26 32.720597 -117.280837 131 8312ft 163kts
30-Mar-19 19:27 32.687539 -117.239424 133 10231ft 183kts
30-Mar-19 19:28 32.650592 -117.194215 133 12074ft 196kts
30-Mar-19 19:29 32.619756 -117.142027 89 13884ft 197kts
30-Mar-19 19:30 32.615930 -117.073792 89 15016ft 235kts
30-Mar-19 19:31 32.610889 -116.988108 90 14997ft 275kts
30-Mar-19 19:32 32.618644 -116.895987 80 14984ft 284kts
30-Mar-19 19:33 32.627987 -116.801662 80 14988ft 288kts
30-Mar-19 19:34 32.684140 -116.751183 13 14996ft 268kts
30-Mar-19 19:35 32.755895 -116.725067 13 14988ft 269kts
30-Mar-19 19:35 32.815735 -116.703491 13 14982ft 269kts
30-Mar-19 19:37 32.899904 -116.673106 13 14991ft 269kts
30-Mar-19 19:38 32.971658 -116.647154 13 14999ft 269kts
30-Mar-19 19:38 33.031474 -116.625485 12 15008ft 268kts
30-Mar-19 19:40 33.115408 -116.595031 12 15012ft 268kts
30-Mar-19 19:40 33.169750 -116.561450 30 15006ft 274kts
30-Mar-19 19:41 33.232588 -116.508556 30 14981ft 274kts
30-Mar-19 19:42 33.295298 -116.455764 30 14943ft 275kts
30-Mar-19 19:43 33.358164 -116.402749 30 14923ft 274kts
30-Mar-19 19:45 33.431060 -116.341155 31 14916ft 274kts
30-Mar-19 19:45 33.483238 -116.296990 31 14916ft 273kts
30-Mar-19 19:46 33.545625 -116.244095 31 14925ft 273kts
30-Mar-19 19:47 33.608042 -116.191079 31 14925ft 273kts
30-Mar-19 19:48 33.670497 -116.137953 31 14426ft 279kts
30-Mar-19 19:49 33.734994 -116.082969 32 12723ft 283kts
30-Mar-19 19:50 33.799505 -116.027860 32 11004ft 282kts
30-Mar-19 19:51 33.862344 -115.974073 32 9704ft 263kts
30-Mar-19 19:52 33.926667 -115.940040 356 8065ft 254kts
30-Mar-19 19:53 33.997251 -115.937078 3 6328ft 247kts
30-Mar-19 19:54 34.058355 -115.907182 37 4386ft 231kts
30-Mar-19 19:55 34.108361 -115.873541 5 3009ft 187kts
30-Mar-19 19:56 34.134416 -115.897628 276 2314ft 112kts
30-Mar-19 19:57 34.134457 -115.929639 274 1878ft 87kts
30-Mar-19 19:58 34.134399 -115.947088 270 1846ft 5kts
30-Mar-19 19:59 34.134882 -115.947361 0 1846ft 0kts
30-Mar-19 20:00 34.135218 -115.947044 91 1844ft 10kts
30-Mar-19 20:01 34.135493 -115.945074 359 1831ft 0kts
30-Mar-19 20:02 34.135493 -115.945074 359 1831ft 0kts
30-Mar-19 20:03 34.135493 -115.945074 359 1831ft 0kts
30-Mar-19 20:04 34.135493 -115.945074 359 1831ft 0kts

Navigation Log

Ident Type
Flight plan parsing failed, navigation log unavailable